Lost Nation, IA (52254)

3:18 PM CDT on August 24, 2016 (GMT -0500)
Maquoketa South 2nd | | Change Station

Elev 745 ft 42.06 °N, 90.67 °W | Updated 12 minutes ago

Mostly Cloudy
Mostly Cloudy
89.4 °F
Feels Like 99 °F
N
5.3
Wind Variable Wind from SW

Today
High -- | Low -- °F
--% Chance of Precip.
Yesterday
High -- | Low -- °F
Precip. -- in
Pressure 29.92 in
Visibility 10.0 miles
Clouds Mostly Cloudy 3300 ft
Mostly Cloudy 3900 ft
Heat Index 99 °F
Dew Point 74 °F
Humidity 61%
Rainfall 1.03 in
Snow Depth Not available.
6:21 AM 7:49 PM
Waning Gibbous, 54% visible
METAR KMXO 242015Z AUTO 23014KT 10SM BKN033 BKN039 30/23 A2992 RMK AO2
Pressure 29.92 in
Visibility 10.0 miles
Clouds Mostly Cloudy 3300 ft
Mostly Cloudy 3900 ft
Heat Index 99 °F
Dew Point 74 °F
Humidity 61%
Rainfall 1.03 in
Snow Depth Not available.
6:21 AM 7:49 PM
Waning Gibbous, 54% visible
METAR KMXO 242015Z AUTO 23014KT 10SM BKN033 BKN039 30/23 A2992 RMK AO2

10-Day Weather Forecast

Almanac

Astronomy

Aug. 24, 2016 Rise Set
Actual Time
Civil Twilight
Nautical Twilight
Astronomical Twilight
Moon
Length of Visible Light
Length of Day
Tomorrow will be .
, % of the Moon is Illuminated

Today's Extremes

State Highs State Lows

Community

WunderPhotos

Upload Photos

1,934,699 photos uploaded!

WunderBlog® & News

Nearby

Air Quality

  Air Quality AQ Index Pollutant
Not available.

Snow Depth

Station Depth Elevation

Earthquake Activity

City Distance Mag. Time & Date
Minimum magnitude displayed is 2.5.

Coastal Water Temperatures

Place Temperature

Stations

Nearby Weather Stations

Station Location Temp. Windchill Dew Point Humidity Wind Precip. Elev Updated Type
                   

Watches & Warnings

There are currently no watches in effect.